createdAt,value
2017-07-26T16:54:40.370Z,98163.11
2017-07-26T16:57:15.261Z,98166.41
2017-07-26T16:59:47.989Z,98173.25
2017-07-26T17:02:36.345Z,98167.59
2017-07-26T17:05:08.145Z,98175.77
2017-07-26T17:07:39.739Z,98175.92
2017-07-26T17:10:12.649Z,98164.77
2017-07-26T17:12:45.186Z,98173.77
2017-07-26T17:15:16.655Z,98182.97
2017-07-26T17:17:53.037Z,98165.42
2017-07-26T17:20:24.544Z,98182.27
2017-07-26T17:22:56.262Z,98181.15
2017-07-26T17:25:28.108Z,98177.84
2017-07-26T17:27:59.575Z,98175.45
2017-07-26T17:30:31.277Z,98179.34
2017-07-26T17:33:02.800Z,98186.02
2017-07-26T17:35:34.180Z,98188.74
2017-07-26T17:38:06.565Z,98172.11
2017-07-26T17:40:38.491Z,98182.33
2017-07-26T17:43:10.553Z,98184.84
2017-07-26T17:45:41.891Z,98168.55
2017-07-26T17:48:16.062Z,98169.89
2017-07-26T17:50:48.111Z,98180.78
2017-07-26T17:53:23.278Z,98186.97
2017-07-26T17:55:55.168Z,98185.63
2017-07-26T17:58:27.687Z,98181.31
2017-07-26T18:00:59.892Z,98180.34
2017-07-26T18:03:31.145Z,98185.89
2017-07-26T18:06:02.843Z,98186.20
2017-07-26T18:08:34.097Z,98179.48
2017-07-26T18:11:05.847Z,98181.97
2017-07-26T18:13:39.215Z,98186.16
2017-07-26T18:16:11.645Z,98188.98
2017-07-26T18:18:43.660Z,98181.91
2017-07-26T18:21:16.254Z,98176.86
2017-07-26T18:23:48.733Z,98194.09
2017-07-26T18:26:22.689Z,98197.23
2017-07-26T18:28:54.394Z,98189.95
2017-07-26T18:31:26.951Z,98179.81
2017-07-26T18:33:59.852Z,98174.03
2017-07-26T18:36:31.387Z,98195.37
2017-07-26T18:39:02.829Z,98200.06
2017-07-26T18:41:34.469Z,98197.23
2017-07-26T18:44:05.783Z,98196.71
2017-07-26T18:46:37.310Z,98200.17
2017-07-26T18:49:09.485Z,98206.06
2017-07-26T18:51:40.991Z,98204.98
2017-07-26T18:54:12.921Z,98204.30
2017-07-26T18:56:44.314Z,98196.08
2017-07-26T18:59:16.377Z,98236.31
2017-07-26T19:01:48.111Z,98189.10
2017-07-26T19:04:22.174Z,98225.89
2017-07-26T19:06:53.896Z,98225.49
2017-07-26T19:09:26.791Z,98193.23
2017-07-26T19:11:57.937Z,98228.30
2017-07-26T19:14:29.662Z,98214.75
2017-07-26T19:17:01.335Z,98241.72
2017-07-26T19:19:33.132Z,98243.13
2017-07-26T19:22:04.708Z,98239.75
2017-07-26T19:24:36.427Z,98246.09
2017-07-26T19:27:08.225Z,98247.37
2017-07-26T19:29:39.856Z,98252.56
2017-07-26T19:32:12.567Z,98242.91
2017-07-26T19:34:44.793Z,98251.98
2017-07-26T19:37:16.333Z,98242.44
2017-07-26T19:39:47.908Z,98251.24
2017-07-26T19:42:22.249Z,98244.19
2017-07-26T19:44:53.855Z,98247.09
2017-07-26T19:47:27.775Z,98186.23
2017-07-26T19:49:59.910Z,98247.23
2017-07-26T19:52:31.408Z,98241.36
2017-07-26T19:55:03.270Z,98245.70
2017-07-26T19:57:41.292Z,98258.58
2017-07-26T20:00:15.053Z,98261.62
2017-07-26T20:02:47.712Z,98263.19
2017-07-26T20:05:22.462Z,98260.12
2017-07-26T20:07:54.862Z,98250.16
2017-07-26T20:10:27.009Z,98208.97
2017-07-26T20:12:58.353Z,98260.67
2017-07-26T20:15:29.965Z,98241.95
2017-07-26T20:18:01.730Z,98255.45
2017-07-26T20:20:33.724Z,98264.08
2017-07-26T20:23:06.452Z,98261.87
2017-07-26T20:25:38.011Z,98262.18
2017-07-26T20:28:10.235Z,98268.47
2017-07-26T20:30:42.179Z,98268.84
2017-07-26T20:33:13.917Z,98270.19
2017-07-26T20:35:45.680Z,98273.73
2017-07-26T20:38:17.157Z,98277.66
2017-07-26T20:40:48.743Z,98277.67
2017-07-26T20:43:23.565Z,98277.66
2017-07-26T20:45:55.379Z,98284.28
2017-07-26T20:48:26.979Z,98231.70
2017-07-26T20:50:59.107Z,98275.47
2017-07-26T20:53:30.583Z,98285.67
2017-07-26T20:56:02.941Z,98290.55
2017-07-26T20:58:38.949Z,98204.31
2017-07-26T21:01:10.681Z,98288.03
2017-07-26T21:03:42.983Z,98281.59
2017-07-26T21:06:14.887Z,98282.84
2017-07-26T21:08:46.525Z,98275.69
2017-07-26T21:11:20.307Z,98279.25
2017-07-26T21:13:52.451Z,98293.05
2017-07-26T21:16:27.516Z,98278.16
2017-07-26T21:18:59.426Z,98283.43
2017-07-26T21:21:31.440Z,98288.77
2017-07-26T21:24:03.107Z,98271.89
2017-07-26T21:26:34.418Z,98281.94
2017-07-26T21:29:06.865Z,98283.24
2017-07-26T21:31:38.654Z,98281.30
2017-07-26T21:34:10.625Z,98273.95
2017-07-26T21:36:42.104Z,98279.82
2017-07-26T21:39:13.807Z,98286.72
2017-07-26T21:41:45.725Z,98282.78
2017-07-26T21:44:20.843Z,98268.20
2017-07-26T21:46:53.989Z,98285.08
2017-07-26T21:49:28.534Z,98248.52
2017-07-26T21:52:01.408Z,98286.58
2017-07-26T21:54:34.398Z,98273.63
2017-07-26T21:57:07.512Z,98284.53
2017-07-26T21:59:39.556Z,98287.13
2017-07-26T22:02:16.347Z,98253.31
2017-07-26T22:04:50.344Z,98279.58
2017-07-26T22:07:25.234Z,98288.63
2017-07-26T22:09:58.331Z,98260.83
2017-07-26T22:12:31.088Z,98286.89
2017-07-26T22:15:03.453Z,98285.26
2017-07-26T22:17:36.818Z,98278.50
2017-07-26T22:20:09.463Z,98278.34
2017-07-26T22:22:41.544Z,98282.50
2017-07-26T22:25:14.497Z,98284.23
2017-07-26T22:27:47.102Z,98288.00
2017-07-26T22:30:22.068Z,98283.20
2017-07-26T22:32:56.231Z,98281.23
2017-07-26T22:35:29.243Z,98284.61
2017-07-26T22:38:01.745Z,98271.37
2017-07-26T22:40:34.525Z,98286.51
2017-07-26T22:43:06.739Z,98287.52
2017-07-26T22:45:39.726Z,98287.77
2017-07-26T22:48:12.903Z,98284.31
2017-07-26T22:50:45.128Z,98289.34
2017-07-26T22:53:17.673Z,98286.49
2017-07-26T22:55:52.795Z,98269.17
2017-07-26T22:58:27.051Z,98259.59
2017-07-26T23:00:59.711Z,98292.23
2017-07-26T23:03:32.541Z,98296.64
2017-07-26T23:06:05.175Z,98292.00
2017-07-26T23:08:42.374Z,98252.22
2017-07-26T23:14:00.328Z,98283.99
2017-07-26T23:16:33.384Z,98289.02
2017-07-26T23:19:05.783Z,98289.58
2017-07-26T23:21:38.003Z,98294.52
2017-07-26T23:24:10.645Z,98289.56
2017-07-26T23:26:44.416Z,98288.23
2017-07-26T23:29:16.368Z,98292.93
2017-07-26T23:31:49.122Z,98287.90
2017-07-26T23:34:23.417Z,98285.41
2017-07-26T23:36:55.927Z,98289.58
2017-07-26T23:39:27.921Z,98289.32
2017-07-26T23:42:00.657Z,98280.61
2017-07-26T23:44:33.242Z,98272.20
2017-07-26T23:47:05.375Z,98270.47
2017-07-26T23:49:37.752Z,98263.58
2017-07-26T23:52:10.044Z,98280.06
2017-07-26T23:54:42.626Z,98282.64
2017-07-26T23:57:15.981Z,98285.24
2017-07-26T23:59:48.016Z,98281.79
